Time;durP1;ratioP1;P1;durP2;ratioP2;P2;SDS_P1;SDS_P2;PMS_P1;PMS_P2;Temp;Humidity;BMP_temperature;BMP_pressure;BME280_temperature;BME280_humidity;BME280_pressure;Samples;Min_cycle;Max_cycle;Signal;HPM_P1;HPM_P2
2024/02/02 00:02:09;;;;;;;10.90;6.67;;;;;;;2.95;100.00;97624.72;4979525;28;20066;-67
2024/02/02 00:04:35;;;;;;;12.90;6.30;;;;;;;2.98;100.00;97627.00;4962388;28;20173;-67
2024/02/02 00:07:01;;;;;;;10.73;6.43;;;;;;;2.99;100.00;97626.06;4977934;28;20050;-68
2024/02/02 00:09:27;;;;;;;9.13;5.70;;;;;;;3.01;100.00;97618.84;4993825;28;20085;-68
2024/02/02 00:11:53;;;;;;;8.80;6.00;;;;;;;2.94;100.00;97619.63;4961445;28;20070;-67
2024/02/02 00:14:19;;;;;;;8.20;5.67;;;;;;;3.02;100.00;97620.50;5009560;28;20142;-68
2024/02/02 00:16:45;;;;;;;8.37;5.53;;;;;;;3.03;100.00;97631.78;5014432;28;20097;-67
2024/02/02 00:19:11;;;;;;;8.23;5.30;;;;;;;3.04;100.00;97628.19;4998637;28;20148;-67
2024/02/02 00:21:38;;;;;;;10.17;5.20;;;;;;;3.04;100.00;97612.47;5014552;28;20139;-68
2024/02/02 00:24:05;;;;;;;8.20;5.43;;;;;;;3.00;100.00;97617.19;4963503;28;20116;-68
2024/02/02 00:26:31;;;;;;;8.03;5.10;;;;;;;3.03;100.00;97624.75;4995257;28;20044;-68
2024/02/02 00:28:57;;;;;;;14.00;5.10;;;;;;;3.00;100.00;97621.63;5041750;28;20147;-68
2024/02/02 00:31:23;;;;;;;6.93;4.83;;;;;;;2.98;100.00;97621.78;5051419;28;20448;-67
2024/02/02 00:33:49;;;;;;;6.70;4.43;;;;;;;2.99;100.00;97615.56;5016209;28;20060;-67
2024/02/02 00:36:15;;;;;;;6.67;5.07;;;;;;;3.04;100.00;97618.53;5050915;28;20044;-67
2024/02/02 00:38:41;;;;;;;6.70;4.90;;;;;;;2.99;100.00;97609.50;5033946;28;20041;-67
2024/02/02 00:41:07;;;;;;;6.93;5.30;;;;;;;2.91;100.00;97622.56;5002571;28;20055;-67
2024/02/02 00:43:34;;;;;;;7.13;5.00;;;;;;;3.03;100.00;97606.38;5018767;28;20033;-67
2024/02/02 00:46:00;;;;;;;7.33;5.40;;;;;;;2.92;100.00;97617.16;5035305;28;20383;-67
2024/02/02 00:48:27;;;;;;;8.17;5.00;;;;;;;2.89;100.00;97611.44;5035152;28;20613;-67
2024/02/02 00:50:53;;;;;;;7.60;4.50;;;;;;;2.91;100.00;97602.44;5035515;28;20352;-67
2024/02/02 00:53:19;;;;;;;9.60;5.50;;;;;;;2.95;100.00;97608.19;5002165;28;20051;-68
2024/02/02 00:55:45;;;;;;;6.30;4.00;;;;;;;2.89;100.00;97604.38;5035377;28;20040;-68
2024/02/02 00:58:11;;;;;;;6.60;4.43;;;;;;;2.89;100.00;97607.00;5034760;28;20045;-67
2024/02/02 01:00:37;;;;;;;6.93;4.53;;;;;;;2.92;100.00;97613.75;5034345;28;20110;-67
2024/02/02 01:03:03;;;;;;;7.43;4.60;;;;;;;2.95;100.00;97613.44;5018353;28;20435;-67
2024/02/02 01:05:31;;;;;;;6.10;4.33;;;;;;;2.95;100.00;97608.97;5002272;28;20048;-67
2024/02/02 01:07:57;;;;;;;5.17;3.93;;;;;;;2.97;100.00;97600.97;5052466;28;20122;-67
2024/02/02 01:10:23;;;;;;;5.77;4.03;;;;;;;2.93;100.00;97610.13;5051677;28;20414;-67
2024/02/02 01:12:49;;;;;;;6.50;4.60;;;;;;;2.86;100.00;97607.31;5035476;28;20141;-68
2024/02/02 01:15:16;;;;;;;5.00;3.90;;;;;;;2.96;100.00;97594.91;5035005;28;20418;-67
2024/02/02 01:17:45;;;;;;;6.00;3.70;;;;;;;2.94;100.00;97586.38;5051395;28;20056;-67
2024/02/02 01:20:15;;;;;;;5.10;3.73;;;;;;;3.08;100.00;97587.56;5017839;28;20037;-67
2024/02/02 01:22:41;;;;;;;6.13;3.93;;;;;;;2.99;100.00;97593.75;5018378;28;20037;-67
2024/02/02 01:25:09;;;;;;;5.20;4.10;;;;;;;2.85;100.00;97592.59;5018316;28;20619;-67
2024/02/02 01:27:38;;;;;;;5.40;4.13;;;;;;;2.80;100.00;97599.28;4999478;28;20049;-67
2024/02/02 01:30:06;;;;;;;6.90;4.20;;;;;;;2.74;100.00;97585.00;4999021;28;20060;-68
2024/02/02 01:32:33;;;;;;;7.10;4.10;;;;;;;2.82;100.00;97578.97;5015545;28;20122;-67
2024/02/02 01:35:00;;;;;;;8.57;4.57;;;;;;;2.86;100.00;97585.56;5014905;28;20041;-67
2024/02/02 01:37:26;;;;;;;5.80;4.03;;;;;;;2.75;100.00;97588.47;5014625;28;20057;-68
2024/02/02 01:39:52;;;;;;;5.57;4.10;;;;;;;2.77;100.00;97582.06;5031810;28;20045;-67
2024/02/02 01:42:20;;;;;;;8.47;4.27;;;;;;;2.65;100.00;97585.97;5016538;28;20137;-68
2024/02/02 01:44:45;;;;;;;5.40;4.03;;;;;;;2.68;100.00;97585.66;5050051;28;20140;-67
2024/02/02 01:47:11;;;;;;;5.90;3.90;;;;;;;2.75;100.00;97564.88;5000447;28;20063;-67
2024/02/02 01:49:37;;;;;;;6.90;4.03;;;;;;;2.82;100.00;97563.25;5049898;28;20078;-67
2024/02/02 01:52:04;;;;;;;5.23;3.63;;;;;;;2.84;100.00;97562.13;4984708;28;20180;-67
2024/02/02 01:54:31;;;;;;;5.47;3.80;;;;;;;2.78;100.00;97581.09;5049686;28;20044;-67
2024/02/02 01:56:57;;;;;;;5.60;4.00;;;;;;;2.69;100.00;97561.06;5033776;28;20146;-67
2024/02/02 01:59:24;;;;;;;5.10;3.87;;;;;;;2.69;100.00;97571.56;5035039;28;20080;-67
2024/02/02 02:01:50;;;;;;;4.50;3.60;;;;;;;2.67;100.00;97563.06;5034053;28;20475;-70
2024/02/02 02:04:17;;;;;;;4.47;3.37;;;;;;;2.64;100.00;97566.00;5002223;28;20036;-67
2024/02/02 02:06:43;;;;;;;5.87;3.50;;;;;;;2.71;100.00;97559.13;5034253;28;20187;-67
2024/02/02 02:09:09;;;;;;;5.63;3.77;;;;;;;2.62;100.00;97562.72;5050702;28;20044;-67
2024/02/02 02:11:35;;;;;;;5.07;3.70;;;;;;;2.51;100.00;97555.13;5017746;28;20045;-67
2024/02/02 02:14:03;;;;;;;6.63;3.90;;;;;;;2.54;100.00;97561.84;5050721;28;20359;-67
2024/02/02 02:16:29;;;;;;;5.43;3.43;;;;;;;2.56;100.00;97557.28;4986075;28;20041;-67
2024/02/02 02:18:55;;;;;;;7.40;3.20;;;;;;;2.46;100.00;97556.59;5034086;28;20475;-67
2024/02/02 02:21:25;;;;;;;5.13;3.43;;;;;;;2.55;100.00;97559.06;5050622;28;20431;-67
2024/02/02 02:23:51;;;;;;;7.10;3.55;;;;;;;2.55;100.00;97564.31;5018706;28;20048;-69
2024/02/02 02:26:18;;;;;;;6.63;3.23;;;;;;;2.59;100.00;97559.56;5016584;28;20049;-66
2024/02/02 02:28:44;;;;;;;3.73;3.03;;;;;;;2.62;100.00;97567.13;5032685;28;20053;-68
2024/02/02 02:31:16;;;;;;;6.63;3.47;;;;;;;2.82;100.00;97568.50;5032395;28;20139;-67
2024/02/02 02:33:44;;;;;;;3.87;3.07;;;;;;;2.63;100.00;97571.41;5049495;28;20048;-66
2024/02/02 02:36:13;;;;;;;5.80;3.30;;;;;;;2.56;100.00;97559.91;5033060;28;20052;-66
2024/02/02 02:38:40;;;;;;;5.57;3.47;;;;;;;2.45;100.00;97557.56;5032676;28;20344;-67
2024/02/02 02:41:08;;;;;;;3.80;3.07;;;;;;;2.41;100.00;97557.06;5032929;28;20061;-66
2024/02/02 02:43:35;;;;;;;4.93;3.37;;;;;;;2.50;100.00;97566.59;5032909;28;20068;-67
2024/02/02 02:46:02;;;;;;;5.63;3.70;;;;;;;2.34;100.00;97553.44;5016403;28;20099;-66
2024/02/02 02:48:31;;;;;;;4.57;3.13;;;;;;;2.51;100.00;97552.50;5032585;28;20037;-66
2024/02/02 02:50:57;;;;;;;5.57;3.57;;;;;;;2.36;100.00;97558.50;5051380;28;20454;-67
2024/02/02 02:53:23;;;;;;;6.47;3.60;;;;;;;2.42;100.00;97558.72;5053171;28;20049;-69
2024/02/02 02:55:49;;;;;;;7.30;3.50;;;;;;;2.49;100.00;97556.28;5036695;28;20497;-66
2024/02/02 02:58:15;;;;;;;5.13;3.53;;;;;;;2.45;100.00;97561.00;5018495;28;20053;-67
2024/02/02 03:00:43;;;;;;;6.20;3.77;;;;;;;2.50;100.00;97556.13;5016092;28;20061;-66
2024/02/02 03:03:11;;;;;;;5.83;3.90;;;;;;;2.36;100.00;97561.97;5000131;28;20060;-67
2024/02/02 03:05:40;;;;;;;6.10;3.63;;;;;;;2.38;100.00;97551.31;4984014;28;20049;-68
2024/02/02 03:08:06;;;;;;;5.97;3.83;;;;;;;2.34;100.00;97560.47;5016601;28;20045;-68
2024/02/02 03:10:35;;;;;;;4.07;3.37;;;;;;;2.41;100.00;97553.63;5000732;28;20049;-69
2024/02/02 03:13:01;;;;;;;4.73;3.50;;;;;;;2.40;100.00;97555.41;5016409;28;20081;-68
2024/02/02 03:15:31;;;;;;;6.63;3.77;;;;;;;2.32;100.00;97549.34;4999929;28;20049;-66
2024/02/02 03:17:57;;;;;;;6.70;4.07;;;;;;;2.35;100.00;97542.00;5016221;28;20057;-68
2024/02/02 03:20:27;;;;;;;6.80;3.70;;;;;;;2.32;100.00;97547.50;4969116;28;20053;-70
2024/02/02 03:22:56;;;;;;;6.10;3.80;;;;;;;2.40;100.00;97555.41;5002260;28;20046;-69
2024/02/02 03:25:22;;;;;;;6.87;4.03;;;;;;;2.32;100.00;97544.09;4982596;28;20131;-69
2024/02/02 03:27:48;;;;;;;7.43;4.37;;;;;;;2.40;100.00;97537.06;4982974;28;20074;-69
2024/02/02 03:30:14;;;;;;;5.27;3.97;;;;;;;2.48;100.00;97544.97;4968220;28;20049;-69
2024/02/02 03:32:41;;;;;;;6.50;4.00;;;;;;;2.41;100.00;97536.13;5053587;28;20056;-69
2024/02/02 03:35:10;;;;;;;9.00;4.43;;;;;;;2.30;100.00;97523.31;5041568;28;20186;-69
2024/02/02 03:37:36;;;;;;;6.83;4.23;;;;;;;2.35;100.00;97530.69;5006958;28;20083;-68
2024/02/02 03:40:04;;;;;;;7.60;4.13;;;;;;;2.37;100.00;97524.31;5037354;28;20086;-70
2024/02/02 03:42:30;;;;;;;5.37;3.90;;;;;;;2.30;100.00;97527.72;5020067;28;20036;-69
2024/02/02 03:44:56;;;;;;;5.57;3.50;;;;;;;2.34;100.00;97527.25;5019695;28;20037;-71
2024/02/02 03:47:24;;;;;;;5.07;3.60;;;;;;;2.38;100.00;97519.91;5019615;28;20060;-71
2024/02/02 03:49:50;;;;;;;8.57;4.33;;;;;;;2.24;100.00;97513.47;5019851;28;20487;-71
2024/02/02 03:52:16;;;;;;;9.90;4.97;;;;;;;2.22;100.00;97523.28;5035766;28;20745;-70
2024/02/02 03:54:42;;;;;;;8.37;4.37;;;;;;;2.10;100.00;97513.22;5003304;28;20061;-71
2024/02/02 03:57:09;;;;;;;6.27;4.43;;;;;;;2.16;100.00;97523.91;5036672;28;20051;-71
2024/02/02 03:59:35;;;;;;;8.67;5.00;;;;;;;2.06;100.00;97517.16;4954193;28;20087;-71
2024/02/02 04:02:01;;;;;;;6.83;4.20;;;;;;;2.03;100.00;97514.84;4921516;29;20055;-70
2024/02/02 04:04:29;;;;;;;7.63;4.23;;;;;;;2.07;100.00;97518.78;4906896;29;20150;-71
2024/02/02 04:06:55;;;;;;;5.97;4.27;;;;;;;2.15;100.00;97527.50;4923199;29;20180;-71
2024/02/02 04:09:20;;;;;;;6.60;4.10;;;;;;;2.17;100.00;97536.00;4938306;29;20142;-71
2024/02/02 04:11:49;;;;;;;11.07;4.27;;;;;;;2.40;100.00;97544.13;4953777;28;20071;-72
2024/02/02 04:14:18;;;;;;;6.23;4.10;;;;;;;2.55;100.00;97540.72;4905959;29;20062;-72
2024/02/02 04:16:47;;;;;;;7.90;4.50;;;;;;;2.38;100.00;97535.63;4937524;29;20466;-70
2024/02/02 04:19:19;;;;;;;6.33;4.93;;;;;;;2.37;100.00;97540.03;4938021;29;20055;-72
2024/02/02 04:21:45;;;;;;;6.20;4.50;;;;;;;2.38;100.00;97546.09;4938190;29;20529;-72
2024/02/02 04:24:12;;;;;;;7.27;4.57;;;;;;;2.36;100.00;97524.47;4950122;29;20063;-74
2024/02/02 04:26:40;;;;;;;8.17;5.17;;;;;;;2.31;100.00;97527.56;4919676;29;20048;-72
2024/02/02 04:29:08;;;;;;;7.57;4.10;;;;;;;2.43;100.00;97535.97;4934977;29;20487;-71
2024/02/02 04:31:34;;;;;;;10.20;5.90;;;;;;;2.43;100.00;97528.91;4956826;28;20094;-72
2024/02/02 04:33:59;;;;;;;8.03;4.50;;;;;;;2.51;100.00;97528.09;4991901;28;20065;-71
2024/02/02 04:36:25;;;;;;;7.00;4.30;;;;;;;2.46;100.00;97535.66;4963601;28;20050;-72
2024/02/02 04:38:54;;;;;;;11.50;5.00;;;;;;;2.44;100.00;97522.72;5011635;28;20049;-72
2024/02/02 04:41:24;;;;;;;10.20;4.90;;;;;;;2.51;100.00;97520.25;5011230;28;20081;-72
2024/02/02 04:43:50;;;;;;;8.87;4.50;;;;;;;2.46;100.00;97522.56;4995222;28;20049;-74
2024/02/02 04:46:16;;;;;;;9.67;4.70;;;;;;;2.32;100.00;97534.41;4980012;28;20041;-74
2024/02/02 04:48:41;;;;;;;8.13;4.60;;;;;;;2.41;100.00;97541.34;4978935;28;20057;-73
2024/02/02 04:51:09;;;;;;;7.60;5.03;;;;;;;2.33;100.00;97536.09;4962668;28;20086;-73
2024/02/02 04:53:37;;;;;;;6.53;4.67;;;;;;;2.40;100.00;97523.97;4998444;28;20156;-73
2024/02/02 04:56:05;;;;;;;7.97;4.63;;;;;;;2.43;100.00;97542.00;5014292;28;20053;-67
2024/02/02 04:58:31;;;;;;;8.00;4.87;;;;;;;2.54;100.00;97533.03;5030623;28;20061;-70
2024/02/02 05:00:57;;;;;;;7.73;4.43;;;;;;;2.57;100.00;97540.59;5021837;28;20052;-72
2024/02/02 05:03:23;;;;;;;8.90;4.53;;;;;;;2.47;100.00;97539.91;5021221;28;20071;-71
2024/02/02 05:05:50;;;;;;;9.33;4.93;;;;;;;2.43;100.00;97536.75;5019454;28;20044;-70
2024/02/02 05:08:17;;;;;;;9.07;4.67;;;;;;;2.57;100.00;97530.91;5015184;28;20067;-69
2024/02/02 05:10:43;;;;;;;9.83;4.60;;;;;;;2.56;100.00;97546.78;5000198;28;20130;-69
2024/02/02 05:13:09;;;;;;;9.87;5.07;;;;;;;2.41;100.00;97548.38;5032299;28;20402;-70
2024/02/02 05:15:35;;;;;;;8.67;4.83;;;;;;;2.43;100.00;97536.75;4999219;28;20056;-70
2024/02/02 05:18:01;;;;;;;8.27;4.50;;;;;;;2.45;100.00;97547.09;5001415;28;20084;-69
2024/02/02 05:20:29;;;;;;;11.73;5.07;;;;;;;2.60;100.00;97540.28;5001793;28;20037;-69
2024/02/02 05:22:55;;;;;;;6.03;4.63;;;;;;;2.63;100.00;97548.63;5034062;28;20057;-68
2024/02/02 05:25:21;;;;;;;9.00;4.83;;;;;;;2.48;100.00;97542.34;5000862;28;20055;-68
2024/02/02 05:27:48;;;;;;;13.63;5.00;;;;;;;2.49;100.00;97543.19;4984908;28;20048;-70
2024/02/02 05:30:14;;;;;;;8.03;4.97;;;;;;;2.67;100.00;97547.34;5017004;28;20064;-69
2024/02/02 05:32:40;;;;;;;8.00;4.27;;;;;;;2.67;100.00;97552.59;4969402;28;20156;-68
2024/02/02 05:35:09;;;;;;;16.27;5.20;;;;;;;2.62;100.00;97543.53;4977942;28;20117;-69
2024/02/02 05:37:34;;;;;;;9.93;4.70;;;;;;;2.58;100.00;97542.22;4939159;28;20047;-69
2024/02/02 05:40:00;;;;;;;9.00;4.80;;;;;;;2.61;100.00;97532.25;4986877;28;20499;-69
2024/02/02 05:42:26;;;;;;;7.43;4.57;;;;;;;2.79;100.00;97548.66;4981732;28;20400;-69
2024/02/02 05:44:53;;;;;;;6.93;4.43;;;;;;;2.79;100.00;97542.59;4997352;28;20594;-67
2024/02/02 05:47:18;;;;;;;8.60;4.70;;;;;;;2.94;100.00;97546.22;4997385;28;20052;-71
2024/02/02 05:49:44;;;;;;;8.03;4.40;;;;;;;3.02;100.00;97541.84;5030229;28;20400;-72
2024/02/02 05:52:10;;;;;;;8.87;5.30;;;;;;;2.89;100.00;97549.34;5013794;28;20041;-71
2024/02/02 05:54:36;;;;;;;8.43;4.67;;;;;;;2.82;100.00;97550.97;5026163;28;20053;-71
2024/02/02 05:57:02;;;;;;;10.07;5.20;;;;;;;2.82;100.00;97548.34;5012393;28;20037;-67
2024/02/02 05:59:28;;;;;;;8.87;4.73;;;;;;;2.81;100.00;97546.72;5020546;28;20049;-67
2024/02/02 06:01:54;;;;;;;7.63;4.70;;;;;;;2.74;100.00;97545.72;5010575;28;20075;-68
2024/02/02 06:04:19;;;;;;;9.80;5.43;;;;;;;2.67;100.00;97539.47;5000502;28;20420;-68
2024/02/02 06:06:45;;;;;;;7.47;4.27;;;;;;;2.82;100.00;97543.09;4993545;28;20073;-69
2024/02/02 06:09:11;;;;;;;10.47;4.83;;;;;;;2.89;100.00;97544.09;5004734;28;20136;-69
2024/02/02 06:11:37;;;;;;;11.00;4.93;;;;;;;2.85;100.00;97549.81;4993775;28;20053;-70
2024/02/02 06:14:03;;;;;;;8.03;4.67;;;;;;;2.68;100.00;97528.00;5000325;28;20056;-69
2024/02/02 06:16:29;;;;;;;7.63;4.37;;;;;;;2.89;100.00;97541.47;4970780;28;20388;-69
2024/02/02 06:18:55;;;;;;;7.60;4.57;;;;;;;2.82;100.00;97540.50;5017653;28;20499;-69
2024/02/02 06:21:20;;;;;;;12.00;4.70;;;;;;;2.83;100.00;97536.88;5005571;28;20124;-69
2024/02/02 06:23:46;;;;;;;10.13;4.90;;;;;;;2.96;100.00;97529.38;5000576;28;20095;-68
2024/02/02 06:26:13;;;;;;;9.50;4.57;;;;;;;3.01;100.00;97547.25;5020191;28;20172;-69
2024/02/02 06:28:39;;;;;;;9.63;4.60;;;;;;;3.10;100.00;97543.66;5038028;28;20508;-69
2024/02/02 06:31:05;;;;;;;7.83;4.10;;;;;;;3.17;100.00;97545.44;5043656;28;20449;-69
2024/02/02 06:33:30;;;;;;;8.60;4.67;;;;;;;3.16;100.00;97545.63;5043549;28;20131;-70
2024/02/02 06:35:56;;;;;;;9.00;4.63;;;;;;;3.20;100.00;97549.53;5029444;28;20475;-69
2024/02/02 06:38:22;;;;;;;6.27;3.90;;;;;;;3.30;100.00;97550.22;5033888;28;20368;-69
2024/02/02 06:40:48;;;;;;;9.50;5.03;;;;;;;3.15;100.00;97557.09;5042876;28;20048;-68
2024/02/02 06:43:14;;;;;;;9.43;5.27;;;;;;;3.13;100.00;97556.44;5051190;28;20483;-70
2024/02/02 06:45:39;;;;;;;7.53;4.10;;;;;;;3.21;100.00;97556.44;5054061;28;20045;-71
2024/02/02 06:48:09;;;;;;;6.10;3.90;;;;;;;3.37;100.00;97544.16;5027553;28;20037;-69
2024/02/02 06:50:35;;;;;;;8.43;4.17;;;;;;;3.33;100.00;97552.50;5042268;28;20041;-68
2024/02/02 06:53:02;;;;;;;9.43;4.00;;;;;;;3.41;100.00;97553.31;5041360;28;20048;-69
2024/02/02 06:55:27;;;;;;;8.03;4.43;;;;;;;3.38;100.00;97552.84;5027048;28;20040;-69
2024/02/02 06:57:53;;;;;;;6.43;3.47;;;;;;;3.49;100.00;97553.31;5021811;28;20159;-69
2024/02/02 07:00:20;;;;;;;5.40;4.17;;;;;;;3.65;100.00;97554.28;5033818;28;20504;-70
2024/02/02 07:02:46;;;;;;;7.57;4.10;;;;;;;3.75;100.00;97558.41;5033869;28;20056;-70
2024/02/02 07:05:16;;;;;;;7.63;4.30;;;;;;;3.96;100.00;97553.44;5020335;28;20361;-71
2024/02/02 07:07:42;;;;;;;6.38;3.80;;;;;;;3.95;100.00;97556.25;5043998;28;20171;-71
2024/02/02 07:10:16;;;;;;;5.43;4.07;;;;;;;4.21;100.00;97559.44;5044611;28;20514;-72
2024/02/02 07:12:53;;;;;;;5.93;3.60;;;;;;;4.39;100.00;97554.78;5051403;28;20139;-71
2024/02/02 07:15:35;;;;;;;5.60;4.07;;;;;;;4.68;100.00;97568.97;5052609;28;20087;-70
2024/02/02 07:18:05;;;;;;;5.53;3.55;;;;;;;5.13;100.00;97574.31;5029331;28;20033;-70
2024/02/02 07:20:32;;;;;;;4.97;3.20;;;;;;;5.18;100.00;97571.16;5033323;28;20100;-71
2024/02/02 07:23:01;;;;;;;5.60;3.17;;;;;;;5.32;100.00;97573.00;5042883;28;20480;-68
2024/02/02 07:25:27;;;;;;;9.07;4.28;;;;;;;5.05;100.00;97587.50;5041040;28;20041;-68
2024/02/02 07:28:03;;;;;;;8.50;3.65;;;;;;;4.80;100.00;97585.16;5031939;28;20523;-67
2024/02/02 07:30:54;;;;;;;6.63;3.10;;;;;;;4.62;100.00;97582.78;5042219;28;20068;-68
2024/02/02 07:33:36;;;;;;;4.05;2.97;;;;;;;4.47;100.00;97574.00;4993703;28;20040;-72
2024/02/02 07:36:03;;;;;;;6.67;3.33;;;;;;;4.24;100.00;97577.50;5032090;28;20048;-71
2024/02/02 07:38:53;;;;;;;4.17;3.20;;;;;;;4.22;100.00;97564.53;5025855;28;20093;-70
2024/02/02 07:41:24;;;;;;;8.48;3.65;;;;;;;4.07;100.00;97576.72;5036134;28;20351;-70
2024/02/02 07:43:52;;;;;;;9.20;4.03;;;;;;;3.97;100.00;97577.88;5022721;28;20041;-68
2024/02/02 07:46:18;;;;;;;8.67;4.20;;;;;;;3.77;100.00;97590.53;5039297;28;20045;-73
2024/02/02 07:48:46;;;;;;;11.30;4.73;;;;;;;3.62;100.00;97580.88;5042083;28;20395;-72
2024/02/02 07:51:12;;;;;;;5.53;3.70;;;;;;;3.64;100.00;97586.78;5040428;28;20151;-72
2024/02/02 07:53:38;;;;;;;5.73;3.33;;;;;;;3.69;100.00;97589.75;5021712;28;20115;-71
2024/02/02 07:56:08;;;;;;;5.97;3.70;;;;;;;3.74;100.00;97593.50;5006356;28;20049;-71
2024/02/02 07:58:36;;;;;;;4.20;2.70;;;;;;;3.86;100.00;97589.53;5009767;28;20051;-72
2024/02/02 08:01:06;;;;;;;3.95;3.33;;;;;;;4.04;100.00;97594.63;5016450;28;20482;-71
2024/02/02 08:03:33;;;;;;;5.53;3.20;;;;;;;4.07;100.00;97608.25;5013910;28;20152;-70
2024/02/02 08:06:01;;;;;;;3.10;2.60;;;;;;;4.14;100.00;97609.19;5028589;28;20102;-71
2024/02/02 08:08:31;;;;;;;3.53;2.33;;;;;;;4.33;100.00;97608.00;5025974;28;20076;-71
2024/02/02 08:10:57;;;;;;;5.10;2.80;;;;;;;4.24;100.00;97609.84;5042119;28;20041;-72
2024/02/02 08:13:23;;;;;;;5.43;2.60;;;;;;;4.20;100.00;97620.84;5040838;28;20057;-73
2024/02/02 08:15:49;;;;;;;4.40;2.20;;;;;;;4.25;100.00;97611.47;5025602;28;20037;-72
2024/02/02 08:18:15;;;;;;;5.37;2.30;;;;;;;4.18;100.00;97613.13;5026052;28;20128;-76
2024/02/02 08:20:43;;;;;;;4.17;2.40;;;;;;;4.20;100.00;97626.91;5016239;28;20130;-73
2024/02/02 08:23:09;;;;;;;5.63;2.40;;;;;;;4.24;100.00;97619.53;5022121;28;20053;-73
2024/02/02 08:25:35;;;;;;;4.50;2.97;;;;;;;4.19;100.00;97620.03;5000099;28;20045;-71
2024/02/02 08:28:02;;;;;;;5.57;2.40;;;;;;;4.28;100.00;97626.09;5017395;28;20473;-74
2024/02/02 08:30:28;;;;;;;5.53;2.40;;;;;;;4.24;100.00;97622.16;5049785;28;20079;-74
2024/02/02 08:32:54;;;;;;;8.10;3.30;;;;;;;4.26;100.00;97631.50;4994577;28;20165;-74
2024/02/02 08:35:25;;;;;;;4.40;1.90;;;;;;;4.48;100.00;97637.84;4991450;28;20081;-74
2024/02/02 08:37:54;;;;;;;6.13;2.30;;;;;;;4.48;100.00;97649.19;4975504;28;20089;-74
2024/02/02 08:40:38;;;;;;;5.03;1.97;;;;;;;4.58;100.00;97651.66;4974408;28;20073;-73
2024/02/02 08:43:12;;;;;;;3.63;2.00;;;;;;;4.56;100.00;97653.59;4990954;28;20054;-71
2024/02/02 08:45:40;;;;;;;3.60;1.90;;;;;;;4.65;100.00;97655.22;4974302;28;20054;-74
2024/02/02 08:48:32;;;;;;;2.93;1.70;;;;;;;4.73;100.00;97670.97;4982739;28;20512;-73
2024/02/02 08:51:13;;;;;;;2.73;1.60;;;;;;;4.82;100.00;97680.47;5014234;28;20068;-75
2024/02/02 08:53:39;;;;;;;3.20;1.77;;;;;;;4.70;100.00;97673.94;5005309;28;20046;-81
2024/02/02 08:56:09;;;;;;;3.27;1.90;;;;;;;4.77;100.00;97678.34;4963220;28;20206;-71
2024/02/02 08:58:36;;;;;;;4.53;1.73;;;;;;;4.75;100.00;97688.22;4962056;28;20057;-70
2024/02/02 09:01:04;;;;;;;6.30;1.63;;;;;;;4.72;100.00;97695.66;4977867;28;20060;-79
2024/02/02 09:03:43;;;;;;;3.27;1.50;;;;;;;4.78;100.00;97705.47;4989299;28;20053;-78
2024/02/02 09:06:30;;;;;;;2.65;1.30;;;;;;;4.88;100.00;97703.47;4999508;28;20041;-79
2024/02/02 09:08:56;;;;;;;8.67;1.63;;;;;;;4.49;100.00;97697.34;5032275;28;20056;-76
2024/02/02 09:11:23;;;;;;;2.60;1.43;;;;;;;4.50;100.00;97697.16;5035212;28;20040;-74
2024/02/02 09:14:04;;;;;;;1.83;1.25;;;;;;;4.61;100.00;97694.16;5019244;28;20435;-78
2024/02/02 09:16:42;;;;;;;4.47;1.35;;;;;;;4.78;100.00;97706.28;5055100;28;20424;-79
2024/02/02 09:19:28;;;;;;;3.30;1.50;;;;;;;5.02;100.00;97669.41;5054995;28;20040;-79
2024/02/02 09:21:57;;;;;;;3.22;1.95;;;;;;;5.53;100.00;97670.59;5056514;28;20041;-80
2024/02/02 09:24:29;;;;;;;4.18;1.50;;;;;;;6.06;100.00;97665.28;5038185;28;20091;-80
2024/02/02 09:26:57;;;;;;;5.03;1.70;;;;;;;6.03;100.00;97664.81;5075815;28;20075;-81
2024/02/02 09:29:24;;;;;;;2.17;1.30;;;;;;;5.95;100.00;97665.69;5038829;28;20082;-77
2024/02/02 09:31:50;;;;;;;5.10;1.30;;;;;;;5.86;100.00;97669.41;5060866;28;20060;-74
2024/02/02 09:34:22;;;;;;;3.78;1.50;;;;;;;5.89;100.00;97676.16;5077726;28;20109;-77
2024/02/02 09:36:47;;;;;;;3.75;1.60;;;;;;;5.63;100.00;97659.84;5073836;28;20078;-77
2024/02/02 09:39:51;;;;;;;3.63;1.70;;;;;;;5.74;100.00;97672.59;5039975;28;20036;-78
2024/02/02 09:42:44;;;;;;;2.70;1.30;;;;;;;6.38;100.00;97664.19;5041395;28;20052;-78
2024/02/02 09:45:12;;;;;;;3.00;1.35;;;;;;;6.59;100.00;97667.75;5030130;28;20040;-77
2024/02/02 09:47:38;;;;;;;3.65;1.45;;;;;;;6.60;100.00;97660.66;5079516;28;20130;-73
2024/02/02 09:50:29;;;;;;;5.20;1.30;;;;;;;6.76;100.00;97663.91;5079415;28;20055;-76
2024/02/02 09:53:04;;;;;;;3.05;1.50;;;;;;;6.89;100.00;97658.84;5058007;28;20056;-78
2024/02/02 09:55:44;;;;;;;3.13;1.52;;;;;;;7.03;100.00;97661.66;5062416;28;20098;-77
2024/02/02 09:58:33;;;;;;;2.42;1.92;;;;;;;8.23;100.00;97665.19;5044002;28;20111;-78
2024/02/02 10:01:05;;;;;;;4.78;2.60;;;;;;;9.55;100.00;97660.41;5031899;28;20058;-79
2024/02/02 10:03:56;;;;;;;3.58;2.85;;;;;;;10.42;100.00;97675.28;5036840;28;20033;-77
2024/02/02 10:06:39;;;;;;;2.70;1.92;;;;;;;11.72;87.12;97676.78;5034339;28;20060;-76
2024/02/02 10:09:09;;;;;;;3.67;2.05;;;;;;;12.45;68.63;97684.09;5005523;28;20045;-79
2024/02/02 10:11:43;;;;;;;3.65;1.67;;;;;;;14.13;61.85;97678.94;5031647;28;20049;-69
2024/02/02 10:14:33;;;;;;;7.18;1.50;;;;;;;13.74;52.79;97661.63;5030869;28;20119;-78
2024/02/02 10:17:33;;;;;;;1.48;1.08;;;;;;;12.35;52.58;97678.44;5032856;28;20095;-79
2024/02/02 10:20:22;;;;;;;4.20;1.30;;;;;;;10.95;53.69;97658.25;5030806;28;20445;-77
2024/02/02 10:23:34;;;;;;;3.60;1.20;;;;;;;9.64;57.77;97665.34;5005534;28;20076;-74
2024/02/02 10:26:14;;;;;;;5.10;1.23;;;;;;;9.32;62.29;97670.53;5025435;28;20505;-78
2024/02/02 10:28:58;;;;;;;4.00;1.25;;;;;;;8.40;63.86;97671.81;5039863;28;20081;-70
2024/02/02 10:32:22;;;;;;;6.05;1.30;;;;;;;7.75;70.69;97676.50;5031518;28;20056;-80
2024/02/02 10:35:03;;;;;;;3.05;1.60;;;;;;;7.43;72.59;97690.16;5049884;28;20051;-74
2024/02/02 10:37:35;;;;;;;2.25;1.30;;;;;;;8.57;72.17;97675.81;5016612;28;20056;-75
2024/02/02 10:40:16;;;;;;;3.50;2.33;;;;;;;8.79;70.15;97688.00;5008532;28;20068;-77
2024/02/02 10:42:53;;;;;;;4.88;2.15;;;;;;;9.70;69.14;97682.31;5058319;28;20141;-77
2024/02/02 10:45:34;;;;;;;3.55;2.22;;;;;;;12.21;60.50;97682.22;5040402;28;20510;-73
2024/02/02 10:48:09;;;;;;;4.28;1.90;;;;;;;13.37;44.39;97684.84;5041620;28;20414;-80
2024/02/02 10:50:54;;;;;;;4.00;2.00;;;;;;;14.59;39.36;97690.53;5042170;28;20506;-80
2024/02/02 10:53:59;;;;;;;3.88;1.80;;;;;;;16.14;36.47;97694.97;5044940;28;20104;-80
2024/02/02 10:56:54;;;;;;;3.38;1.63;;;;;;;16.85;31.78;97700.50;5029999;28;20450;-78
2024/02/02 10:59:38;;;;;;;2.50;1.50;;;;;;;17.88;29.05;97717.50;5012492;28;20064;-79
2024/02/02 11:02:30;;;;;;;3.30;0.93;;;;;;;17.84;27.45;97711.03;5011189;28;20046;-80
2024/02/02 11:05:35;;;;;;;2.75;1.55;;;;;;;18.29;25.64;97706.16;4947163;28;20050;-78
2024/02/02 11:08:06;;;;;;;2.15;1.40;;;;;;;18.97;24.35;97702.75;5001734;28;20075;-80
2024/02/02 11:10:59;;;;;;;2.65;1.40;;;;;;;18.93;24.41;97712.41;4993226;28;20038;-78
2024/02/02 11:13:53;;;;;;;1.85;1.38;;;;;;;19.20;24.53;97710.47;4999746;28;20049;-78
2024/02/02 11:16:56;;;;;;;3.92;1.15;;;;;;;18.21;23.07;97712.00;5044994;28;20034;-74
2024/02/02 11:20:04;;;;;;;2.40;1.92;;;;;;;17.85;23.69;97736.03;5028309;28;20476;-75
2024/02/02 11:22:38;;;;;;;2.28;1.70;;;;;;;18.45;22.93;97742.91;5031722;28;20171;-81
2024/02/02 11:25:32;;;;;;;4.65;1.10;;;;;;;18.52;22.06;97733.81;5023827;28;20045;-80
2024/02/02 11:28:10;;;;;;;1.13;0.70;;;;;;;17.61;22.81;97723.88;5025781;28;20052;-79
2024/02/02 11:30:50;;;;;;;1.80;0.80;;;;;;;15.94;24.10;97732.91;5022794;28;20130;-78
2024/02/02 11:33:38;;;;;;;3.40;0.95;;;;;;;13.84;25.29;97730.44;5023412;28;20377;-76
2024/02/02 11:36:10;;;;;;;2.72;1.40;;;;;;;14.24;25.58;97723.53;5024865;28;20095;-78
2024/02/02 11:38:54;;;;;;;4.32;1.60;;;;;;;15.92;25.09;97720.78;5026799;28;20042;-79
2024/02/02 11:41:23;;;;;;;2.50;1.08;;;;;;;17.08;24.35;97727.16;5045299;28;20038;-78
2024/02/02 11:43:50;;;;;;;4.28;1.70;;;;;;;17.31;22.68;97729.63;5026334;28;20029;-78
2024/02/02 11:46:18;;;;;;;2.53;0.93;;;;;;;16.52;22.65;97741.50;5004775;28;20152;-78
2024/02/02 11:48:51;;;;;;;2.15;0.90;;;;;;;14.76;24.32;97736.13;5029445;28;20045;-77
2024/02/02 11:51:18;;;;;;;3.03;0.93;;;;;;;13.37;26.05;97737.34;5047822;28;20041;-77